Time;durP1;ratioP1;P1;durP2;ratioP2;P2;SDS_P1;SDS_P2;PMS_P1;PMS_P2;Temp;Humidity;BMP_temperature;BMP_pressure;BME280_temperature;BME280_humidity;BME280_pressure;Samples;Min_cycle;Max_cycle;Signal;HPM_P1;HPM_P2
2023/10/22 00:36:20;;;;;;;2.93;0.50;;;13.10;99.90;;;;;;5075178;28;20167;-43
2023/10/22 00:38:51;;;;;;;1.10;0.40;;;13.10;99.90;;;;;;5056845;28;20179;-45
2023/10/22 00:41:35;;;;;;;3.17;0.70;;;13.10;99.90;;;;;;5040467;28;20204;-43
2023/10/22 00:44:10;;;;;;;1.60;0.47;;;13.10;99.90;;;;;;5073227;28;20223;-44
2023/10/22 00:50:45;;;;;;;1.73;0.50;;;13.10;99.90;;;;;;5076141;28;20207;-43
2023/10/22 00:53:18;;;;;;;1.47;0.37;;;13.10;99.90;;;;;;5075393;28;20195;-43
2023/10/22 00:55:48;;;;;;;2.90;0.40;;;13.10;99.90;;;;;;5057585;28;20168;-43
2023/10/22 00:58:53;;;;;;;3.20;0.80;;;13.10;99.90;;;;;;5074719;28;20565;-43
2023/10/22 01:01:49;;;;;;;3.50;0.60;;;13.10;99.90;;;;;;5056340;28;20195;-44
2023/10/22 01:04:32;;;;;;;0.83;0.60;;;13.10;99.90;;;;;;5052726;28;20253;-44
2023/10/22 01:07:21;;;;;;;2.30;0.60;;;13.10;99.90;;;;;;5072722;28;20647;-44
2023/10/22 01:10:31;;;;;;;4.20;0.53;;;13.10;99.90;;;;;;5056740;28;20178;-46
2023/10/22 01:12:59;;;;;;;2.37;0.67;;;13.10;99.90;;;;;;5075181;28;20171;-46
2023/10/22 01:16:01;;;;;;;1.90;0.67;;;13.10;99.90;;;;;;5056937;28;20186;-46
2023/10/22 05:50:09;;;;;;;3.57;0.40;;;11.30;99.90;;;;;;4254419;22;20594;-47
2023/10/22 05:52:36;;;;;;;0.30;0.30;;;11.30;99.90;;;;;;5053616;28;20177;-47
2023/10/22 05:55:04;;;;;;;1.17;0.50;;;11.30;99.90;;;;;;5053589;28;20184;-47
2023/10/22 05:57:30;;;;;;;0.53;0.47;;;11.30;99.90;;;;;;5053121;28;20643;-47
2023/10/22 05:59:57;;;;;;;0.30;0.30;;;11.30;99.90;;;;;;5053447;28;20207;-46
2023/10/22 06:02:23;;;;;;;0.97;0.37;;;11.20;99.90;;;;;;5054889;28;20175;-46
2023/10/22 06:04:49;;;;;;;0.30;0.30;;;11.30;99.90;;;;;;5073178;28;20192;-47
2023/10/22 06:07:14;;;;;;;3.50;0.40;;;11.20;99.90;;;;;;5073488;28;20172;-46
2023/10/22 06:09:40;;;;;;;0.53;0.40;;;11.30;99.90;;;;;;5073331;28;20183;-47
2023/10/22 06:12:08;;;;;;;0.70;0.40;;;11.30;99.90;;;;;;5073351;28;20185;-46
2023/10/22 06:14:45;;;;;;;1.40;0.43;;;11.20;99.90;;;;;;5073391;28;20183;-46
2023/10/22 06:17:11;;;;;;;0.63;0.40;;;11.20;99.90;;;;;;5073386;28;20641;-46
2023/10/22 06:19:36;;;;;;;1.17;0.50;;;11.20;99.90;;;;;;5038516;28;20210;-48
2023/10/22 06:22:03;;;;;;;1.60;0.40;;;11.20;99.90;;;;;;5073656;28;20175;-46
2023/10/22 06:24:34;;;;;;;1.60;0.50;;;11.20;99.90;;;;;;5054989;28;20206;-47
2023/10/22 06:27:00;;;;;;;2.20;0.40;;;11.20;99.90;;;;;;5073012;28;20156;-45
2023/10/22 06:29:26;;;;;;;6.90;0.77;;;11.20;99.90;;;;;;5072917;28;20677;-46
2023/10/22 06:31:52;;;;;;;0.80;0.40;;;11.20;99.90;;;;;;5072908;28;20192;-46
2023/10/22 06:34:17;;;;;;;1.27;0.50;;;11.20;99.90;;;;;;5054983;28;20180;-46
2023/10/22 06:36:44;;;;;;;0.70;0.50;;;11.20;99.90;;;;;;5073160;28;20175;-46
2023/10/22 06:39:10;;;;;;;1.47;0.77;;;11.20;99.90;;;;;;5073181;28;20180;-46
2023/10/22 06:41:39;;;;;;;1.73;0.40;;;11.20;99.90;;;;;;5073082;28;20626;-47
2023/10/22 06:44:04;;;;;;;0.40;0.40;;;11.20;99.90;;;;;;5076186;28;20245;-45
2023/10/22 06:46:30;;;;;;;4.63;0.80;;;11.20;99.90;;;;;;5059425;28;20175;-48
2023/10/22 06:48:56;;;;;;;1.13;0.67;;;11.20;99.90;;;;;;5058583;28;20199;-47
2023/10/22 06:51:22;;;;;;;2.17;0.80;;;11.20;99.90;;;;;;5076403;28;20199;-46
2023/10/22 06:53:48;;;;;;;2.20;1.47;;;11.20;99.90;;;;;;5058890;28;20592;-46
2023/10/22 06:56:14;;;;;;;3.07;0.90;;;11.30;99.90;;;;;;5058443;28;20263;-47
2023/10/22 06:58:41;;;;;;;1.50;1.00;;;11.30;99.90;;;;;;5058448;28;20184;-47
2023/10/22 07:01:14;;;;;;;1.20;0.70;;;11.30;99.90;;;;;;5076279;28;20227;-48
2023/10/22 07:03:43;;;;;;;1.23;0.67;;;11.30;99.90;;;;;;5076465;28;20243;-47
2023/10/22 07:06:08;;;;;;;0.97;0.50;;;11.40;99.90;;;;;;5076480;28;20195;-47
2023/10/22 07:08:34;;;;;;;0.80;0.50;;;11.40;99.90;;;;;;5058602;28;20183;-45
2023/10/22 07:11:00;;;;;;;0.67;0.50;;;11.40;99.90;;;;;;5076142;28;20277;-47
2023/10/22 07:13:26;;;;;;;1.30;0.53;;;11.40;99.90;;;;;;5076355;28;20178;-46
2023/10/22 07:15:53;;;;;;;2.93;0.70;;;11.50;99.90;;;;;;5075472;28;20188;-41
2023/10/22 07:18:24;;;;;;;0.73;0.60;;;11.50;99.90;;;;;;5076271;28;20266;-43
2023/10/22 07:20:51;;;;;;;1.27;0.43;;;11.50;99.90;;;;;;5076257;28;20206;-43
2023/10/22 07:23:18;;;;;;;1.77;0.60;;;11.50;99.90;;;;;;5076835;28;20183;-42
2023/10/22 07:25:47;;;;;;;1.53;0.70;;;11.50;99.90;;;;;;5058100;28;20214;-40
2023/10/22 07:28:15;;;;;;;1.73;0.63;;;11.50;99.90;;;;;;5075404;28;20276;-40
2023/10/22 07:30:48;;;;;;;1.90;0.60;;;11.50;99.90;;;;;;5075928;28;20287;-42
2023/10/22 07:33:17;;;;;;;3.70;0.80;;;11.60;99.90;;;;;;5076117;28;20156;-43
2023/10/22 07:35:53;;;;;;;1.77;0.70;;;11.60;99.90;;;;;;5057761;28;20199;-43
2023/10/22 07:38:19;;;;;;;2.43;0.87;;;11.60;99.90;;;;;;5075872;28;20190;-44
2023/10/22 07:40:45;;;;;;;2.03;0.80;;;11.60;99.90;;;;;;5057952;28;20207;-43
2023/10/22 07:43:10;;;;;;;1.13;0.50;;;11.60;99.90;;;;;;5075920;28;20187;-43
2023/10/22 07:45:40;;;;;;;1.13;0.60;;;11.70;99.90;;;;;;5076541;28;20208;-42
2023/10/22 07:48:06;;;;;;;2.27;0.60;;;11.70;99.90;;;;;;5065577;28;20187;-42
2023/10/22 07:50:32;;;;;;;0.80;0.53;;;11.70;99.90;;;;;;5075776;28;20560;-43
2023/10/22 07:52:57;;;;;;;2.83;0.50;;;11.80;99.90;;;;;;5057397;28;20176;-44
2023/10/22 07:55:23;;;;;;;4.47;0.73;;;11.80;99.90;;;;;;5075510;28;20188;-43
2023/10/22 07:57:49;;;;;;;4.03;1.03;;;11.80;99.90;;;;;;5075579;28;20629;-42
2023/10/22 08:00:14;;;;;;;1.47;0.70;;;11.80;99.90;;;;;;5075545;28;20204;-44
2023/10/22 08:02:41;;;;;;;1.83;0.57;;;11.80;99.90;;;;;;5075863;28;20194;-42
2023/10/22 08:05:08;;;;;;;1.30;0.90;;;11.90;99.90;;;;;;5057104;28;20199;-41
2023/10/22 08:07:40;;;;;;;3.33;0.60;;;11.90;99.90;;;;;;5057576;28;20211;-43
2023/10/22 08:10:06;;;;;;;0.97;0.43;;;11.90;99.90;;;;;;5075096;28;20210;-43
2023/10/22 08:13:03;;;;;;;0.80;0.57;;;11.90;99.90;;;;;;5075012;28;20544;-42
2023/10/22 08:15:30;;;;;;;1.70;0.80;;;12.00;99.90;;;;;;5057095;28;20227;-42
2023/10/22 08:17:55;;;;;;;3.87;0.40;;;12.00;99.90;;;;;;5075190;28;20244;-43
2023/10/22 08:20:21;;;;;;;1.47;0.40;;;12.10;99.90;;;;;;5075113;28;20286;-42
2023/10/22 08:22:48;;;;;;;1.53;0.77;;;12.10;99.90;;;;;;5075075;28;20175;-43
2023/10/22 08:25:17;;;;;;;0.90;0.43;;;12.10;99.90;;;;;;5056735;28;20203;-44
2023/10/22 08:27:42;;;;;;;0.60;0.30;;;12.20;99.90;;;;;;5057033;28;20186;-44
2023/10/22 08:30:08;;;;;;;1.20;0.60;;;12.20;99.90;;;;;;5040210;28;20667;-45
2023/10/22 08:32:43;;;;;;;1.53;0.60;;;12.20;99.90;;;;;;5056651;28;20176;-45
2023/10/22 08:35:13;;;;;;;1.93;0.37;;;12.30;99.90;;;;;;5074515;28;20195;-43
2023/10/22 08:37:42;;;;;;;1.40;0.60;;;12.30;99.90;;;;;;5056594;28;20179;-43
2023/10/22 08:40:09;;;;;;;0.70;0.50;;;12.40;99.90;;;;;;5074382;28;20730;-43
2023/10/22 08:42:37;;;;;;;1.03;0.50;;;12.50;99.90;;;;;;5056183;28;20209;-44
2023/10/22 08:45:09;;;;;;;1.27;0.60;;;12.50;99.90;;;;;;5074528;28;20208;-44
2023/10/22 08:47:35;;;;;;;0.80;0.63;;;12.60;99.90;;;;;;5074376;28;20184;-43
2023/10/22 08:50:05;;;;;;;1.23;0.73;;;12.70;99.90;;;;;;5056097;28;20309;-46
2023/10/22 08:52:33;;;;;;;1.23;0.50;;;12.80;99.90;;;;;;5074393;28;20187;-45
2023/10/22 08:55:01;;;;;;;2.40;0.50;;;12.90;99.90;;;;;;5074096;28;20609;-45
2023/10/22 08:57:29;;;;;;;0.53;0.50;;;12.90;99.90;;;;;;5074171;28;20187;-44
2023/10/22 09:00:01;;;;;;;1.40;0.40;;;13.00;99.90;;;;;;5056173;28;20211;-45
2023/10/22 09:02:32;;;;;;;1.43;0.40;;;13.00;99.90;;;;;;5056290;28;20180;-45
2023/10/22 09:05:00;;;;;;;0.40;0.40;;;13.10;99.90;;;;;;5074287;28;20567;-45
2023/10/22 09:07:58;;;;;;;0.77;0.43;;;13.10;99.90;;;;;;5073138;28;20229;-45
2023/10/22 09:10:31;;;;;;;3.07;0.60;;;13.20;99.90;;;;;;5054354;28;20549;-43
2023/10/22 09:13:15;;;;;;;0.80;0.50;;;13.30;99.90;;;;;;5073963;28;20164;-44
2023/10/22 09:15:45;;;;;;;1.80;0.50;;;13.30;99.90;;;;;;5068823;28;20203;-44
2023/10/22 09:18:12;;;;;;;1.40;0.70;;;13.30;99.90;;;;;;5073630;28;20190;-44
2023/10/22 09:20:39;;;;;;;0.60;0.50;;;13.30;99.90;;;;;;5039342;28;20290;-46
2023/10/22 09:23:21;;;;;;;1.30;0.53;;;13.40;99.90;;;;;;5056338;28;20192;-45
2023/10/22 09:25:59;;;;;;;1.50;0.50;;;13.40;99.90;;;;;;5074152;28;20203;-44
2023/10/22 09:28:29;;;;;;;0.60;0.50;;;13.40;99.90;;;;;;5072887;28;20616;-43
2023/10/22 09:30:58;;;;;;;0.93;0.57;;;13.40;99.90;;;;;;5056049;28;20278;-44
2023/10/22 09:33:41;;;;;;;2.20;0.50;;;13.40;99.90;;;;;;5073673;28;20172;-45
2023/10/22 09:36:12;;;;;;;0.93;0.50;;;13.40;99.90;;;;;;5039426;28;20272;-45
2023/10/22 09:38:51;;;;;;;1.13;0.60;;;13.40;99.90;;;;;;5055738;28;20195;-44
2023/10/22 09:41:35;;;;;;;1.63;0.60;;;13.40;99.90;;;;;;5053545;28;20211;-43
2023/10/22 09:44:05;;;;;;;1.83;0.80;;;13.50;99.90;;;;;;5055598;28;20175;-44
2023/10/22 09:46:35;;;;;;;1.00;0.67;;;13.40;99.90;;;;;;5056501;28;20635;-45
2023/10/22 09:49:03;;;;;;;0.53;0.50;;;13.50;99.90;;;;;;5052542;28;20206;-46
2023/10/22 09:51:39;;;;;;;2.20;0.60;;;13.50;99.90;;;;;;5055763;28;20227;-45
2023/10/22 09:54:10;;;;;;;2.70;0.70;;;13.50;99.90;;;;;;5073467;28;20253;-45
2023/10/22 09:56:50;;;;;;;1.93;1.00;;;13.40;99.90;;;;;;5055509;28;20278;-44
2023/10/22 09:59:18;;;;;;;2.13;0.57;;;13.40;99.90;;;;;;5023326;28;20677;-45
2023/10/22 10:01:43;;;;;;;2.93;0.60;;;13.40;99.90;;;;;;5055341;28;20294;-45
2023/10/22 10:04:11;;;;;;;1.13;0.50;;;13.50;99.90;;;;;;5055176;28;20726;-44
2023/10/22 10:06:43;;;;;;;2.50;0.40;;;13.50;99.90;;;;;;5072676;28;20226;-44
2023/10/22 10:09:10;;;;;;;1.70;0.70;;;13.50;99.90;;;;;;5073897;28;20160;-45
2023/10/22 10:11:37;;;;;;;1.67;0.53;;;13.40;99.90;;;;;;5055178;28;20231;-45
2023/10/22 10:15:00;;;;;;;2.33;0.70;;;13.50;99.90;;;;;;5038614;28;20180;-44
2023/10/22 10:17:27;;;;;;;1.70;0.70;;;13.50;99.90;;;;;;5036568;28;20191;-44
2023/10/22 10:20:22;;;;;;;2.37;0.70;;;13.50;99.90;;;;;;5059246;28;20206;-45
2023/10/22 10:23:19;;;;;;;2.77;0.60;;;13.60;99.90;;;;;;5059221;28;20237;-46
2023/10/22 10:25:45;;;;;;;4.40;1.70;;;13.70;99.90;;;;;;5057249;28;20211;-44
2023/10/22 10:28:16;;;;;;;1.27;0.50;;;13.70;99.90;;;;;;5042414;28;20184;-46
2023/10/22 10:30:44;;;;;;;1.07;0.30;;;13.80;99.90;;;;;;5059032;28;20663;-44
2023/10/22 10:33:14;;;;;;;1.20;0.67;;;13.80;99.90;;;;;;5058941;28;20190;-45
2023/10/22 10:35:45;;;;;;;0.40;0.40;;;13.80;99.90;;;;;;5042933;28;20525;-44
2023/10/22 10:38:13;;;;;;;2.57;0.50;;;13.80;99.90;;;;;;5048470;28;20298;-45
2023/10/22 10:40:43;;;;;;;1.50;0.43;;;13.90;99.90;;;;;;5079236;28;20195;-44
2023/10/22 10:43:09;;;;;;;3.47;0.50;;;13.90;99.90;;;;;;5058821;28;20184;-45
2023/10/22 10:45:35;;;;;;;2.13;0.67;;;14.00;99.90;;;;;;5058759;28;20199;-45
2023/10/22 10:48:01;;;;;;;1.30;0.40;;;14.00;99.90;;;;;;5076689;28;20187;-44
2023/10/22 10:50:32;;;;;;;0.30;0.30;;;14.10;99.90;;;;;;5058560;28;20206;-45
2023/10/22 10:52:59;;;;;;;0.40;0.40;;;14.20;99.90;;;;;;5077308;28;20168;-44
2023/10/22 10:55:32;;;;;;;2.10;0.60;;;14.30;99.90;;;;;;5076469;28;20191;-44
2023/10/22 10:57:59;;;;;;;1.10;0.37;;;14.40;99.90;;;;;;5076402;28;20172;-45
2023/10/22 11:00:32;;;;;;;0.83;0.33;;;14.50;99.90;;;;;;5076342;28;20200;-45
2023/10/22 11:03:04;;;;;;;1.40;0.50;;;14.60;99.90;;;;;;5076690;28;20171;-45
2023/10/22 11:05:47;;;;;;;0.47;0.40;;;14.70;99.90;;;;;;5058637;28;20203;-45
2023/10/22 11:08:24;;;;;;;0.57;0.30;;;14.70;99.90;;;;;;5071765;28;20190;-44
2023/10/22 11:10:54;;;;;;;1.13;0.40;;;14.80;99.90;;;;;;5076490;28;20195;-44
2023/10/22 11:13:26;;;;;;;0.77;0.50;;;14.80;99.90;;;;;;5058714;28;20178;-45
2023/10/22 11:15:54;;;;;;;0.40;0.37;;;14.80;99.90;;;;;;5055707;28;20187;-45
2023/10/22 11:18:19;;;;;;;0.40;0.40;;;14.90;99.90;;;;;;5076388;28;20179;-45
2023/10/22 11:20:56;;;;;;;0.53;0.30;;;14.90;99.90;;;;;;5076202;28;20683;-44
2023/10/22 11:23:24;;;;;;;0.30;0.30;;;15.00;99.90;;;;;;5056001;28;20697;-45
2023/10/22 11:25:51;;;;;;;1.33;0.40;;;15.00;99.90;;;;;;5041485;28;20219;-47
2023/10/22 11:28:18;;;;;;;1.40;0.40;;;15.10;99.90;;;;;;5075706;28;20187;-45
2023/10/22 11:30:45;;;;;;;0.77;0.30;;;15.20;99.90;;;;;;5040384;28;20223;-46
2023/10/22 11:33:28;;;;;;;0.40;0.30;;;15.20;99.90;;;;;;5041227;28;20172;-45
2023/10/22 11:35:57;;;;;;;0.83;0.30;;;15.20;99.90;;;;;;5041427;28;20274;-45
2023/10/22 11:38:23;;;;;;;0.20;0.20;;;15.20;99.90;;;;;;5057710;28;20179;-45
2023/10/22 11:41:03;;;;;;;0.83;0.43;;;15.30;99.90;;;;;;5075783;28;20200;-45
2023/10/22 11:43:46;;;;;;;0.50;0.30;;;15.30;99.90;;;;;;5057648;28;20726;-43
2023/10/22 11:46:12;;;;;;;1.40;0.50;;;15.50;99.90;;;;;;5057707;28;20196;-45
2023/10/22 11:48:44;;;;;;;0.30;0.30;;;15.40;99.90;;;;;;5074106;28;20275;-42
2023/10/22 11:51:15;;;;;;;1.00;0.40;;;15.40;99.90;;;;;;5075622;28;20232;-40
2023/10/22 11:53:46;;;;;;;1.07;0.40;;;15.40;99.90;;;;;;5075680;28;20162;-41
2023/10/22 11:56:14;;;;;;;0.80;0.40;;;15.40;99.90;;;;;;5057380;28;20194;-41
2023/10/22 11:58:43;;;;;;;0.70;0.33;;;15.40;99.90;;;;;;5075197;28;20225;-42
2023/10/22 12:01:08;;;;;;;0.43;0.40;;;15.40;99.90;;;;;;5057997;28;20199;-42
2023/10/22 12:03:36;;;;;;;1.53;0.30;;;15.40;99.90;;;;;;5075189;28;20207;-44
2023/10/22 12:06:03;;;;;;;0.57;0.40;;;15.40;99.90;;;;;;5057134;28;20241;-41
2023/10/22 12:08:29;;;;;;;1.00;0.47;;;15.40;99.90;;;;;;5057204;28;20554;-41
2023/10/22 12:10:55;;;;;;;0.63;0.50;;;15.50;99.90;;;;;;5074960;28;20192;-43
2023/10/22 12:13:21;;;;;;;0.70;0.40;;;15.50;99.90;;;;;;5057141;28;20180;-42
2023/10/22 12:15:48;;;;;;;0.90;0.40;;;15.50;99.90;;;;;;5057349;28;20724;-41
2023/10/22 12:18:13;;;;;;;0.63;0.50;;;15.60;99.90;;;;;;5057064;28;20187;-40
2023/10/22 12:20:40;;;;;;;0.70;0.40;;;15.60;99.90;;;;;;5057757;28;20647;-42
2023/10/22 12:23:10;;;;;;;1.70;0.50;;;15.70;99.90;;;;;;5057279;28;20655;-42
2023/10/22 12:25:36;;;;;;;0.40;0.40;;;15.60;99.90;;;;;;5056837;28;20207;-40
2023/10/22 12:28:02;;;;;;;0.30;0.30;;;15.60;99.90;;;;;;5074903;28;20229;-41
2023/10/22 12:30:28;;;;;;;0.30;0.30;;;15.60;99.90;;;;;;5056739;28;20283;-42
2023/10/22 12:32:55;;;;;;;0.30;0.30;;;15.70;99.90;;;;;;5057069;28;20182;-42
2023/10/22 12:35:27;;;;;;;0.60;0.30;;;15.60;99.90;;;;;;5056659;28;20175;-42
2023/10/22 12:37:57;;;;;;;0.23;0.23;;;15.60;99.90;;;;;;5056728;28;20592;-40
2023/10/22 12:40:23;;;;;;;0.30;0.30;;;15.60;99.90;;;;;;5056414;28;20219;-42
2023/10/22 12:42:49;;;;;;;0.30;0.30;;;15.50;99.90;;;;;;5056593;28;20183;-43
2023/10/22 12:45:17;;;;;;;0.20;0.20;;;15.50;99.90;;;;;;5040069;28;20261;-42
2023/10/22 12:47:43;;;;;;;0.40;0.40;;;15.30;99.90;;;;;;5075291;28;20679;-41
2023/10/22 12:50:09;;;;;;;1.10;0.50;;;15.30;99.90;;;;;;5039999;28;20203;-43
2023/10/22 12:53:07;;;;;;;0.90;0.40;;;15.30;99.90;;;;;;5040241;28;20249;-43
2023/10/22 12:55:39;;;;;;;0.30;0.30;;;15.20;99.90;;;;;;5074720;28;20194;-45
2023/10/22 12:58:05;;;;;;;0.30;0.27;;;15.20;99.90;;;;;;5073990;28;20280;-43
2023/10/22 13:00:31;;;;;;;0.50;0.50;;;15.20;99.90;;;;;;5074281;28;20249;-43
2023/10/22 13:02:56;;;;;;;1.70;0.43;;;15.20;99.90;;;;;;5074024;28;20179;-43
2023/10/22 13:05:32;;;;;;;1.07;0.50;;;15.20;99.90;;;;;;5074503;28;20243;-44
2023/10/22 13:07:59;;;;;;;2.73;1.13;;;15.20;99.90;;;;;;5074502;28;20171;-45
2023/10/22 13:10:25;;;;;;;0.53;0.50;;;15.20;99.90;;;;;;5073603;28;20566;-43
2023/10/22 13:12:52;;;;;;;0.40;0.40;;;15.30;99.90;;;;;;5074051;28;20181;-44
2023/10/22 13:15:17;;;;;;;0.50;0.50;;;15.30;99.90;;;;;;5073777;28;20183;-44
2023/10/22 13:17:46;;;;;;;2.67;0.50;;;15.30;99.90;;;;;;5073780;28;20184;-46
2023/10/22 13:20:12;;;;;;;0.40;0.40;;;15.30;99.90;;;;;;5073720;28;20203;-45
2023/10/22 13:22:38;;;;;;;0.30;0.30;;;15.30;99.90;;;;;;5039300;28;20266;-45
2023/10/22 13:25:05;;;;;;;0.43;0.43;;;15.30;99.90;;;;;;5073879;28;20682;-45
2023/10/22 13:27:37;;;;;;;2.30;0.50;;;15.40;99.90;;;;;;5055787;28;20211;-46
2023/10/22 13:30:07;;;;;;;1.97;0.60;;;15.30;99.90;;;;;;5073798;28;20213;-44
2023/10/22 13:32:36;;;;;;;0.30;0.30;;;15.30;99.90;;;;;;5055974;28;20180;-45
2023/10/22 13:35:03;;;;;;;0.87;0.47;;;15.30;99.90;;;;;;5055663;28;20183;-46
2023/10/22 13:37:29;;;;;;;1.10;0.60;;;15.40;99.90;;;;;;5073799;28;20183;-46
2023/10/22 13:39:55;;;;;;;3.10;0.90;;;15.40;99.90;;;;;;5073460;28;20195;-46
2023/10/22 13:42:22;;;;;;;1.10;0.80;;;15.40;99.90;;;;;;5073967;28;20183;-47
2023/10/22 13:44:49;;;;;;;2.13;0.90;;;15.50;99.90;;;;;;5073438;28;20662;-47
2023/10/22 13:47:15;;;;;;;1.57;1.00;;;15.50;99.90;;;;;;5056234;28;20198;-46
2023/10/22 13:49:44;;;;;;;1.57;1.07;;;15.60;99.90;;;;;;5073355;28;20172;-46
2023/10/22 13:52:13;;;;;;;2.10;1.70;;;15.70;99.90;;;;;;5073064;28;20675;-46
2023/10/22 13:54:39;;;;;;;1.03;0.90;;;15.80;99.90;;;;;;5055443;28;20520;-46
2023/10/22 13:57:06;;;;;;;1.47;0.73;;;15.70;99.90;;;;;;5073649;28;20278;-46
2023/10/22 13:59:36;;;;;;;3.87;1.37;;;15.70;99.90;;;;;;5055184;28;20200;-47
2023/10/22 14:02:02;;;;;;;3.63;1.83;;;15.70;99.90;;;;;;5073230;28;20179;-47
2023/10/22 14:04:34;;;;;;;2.00;0.60;;;15.70;99.90;;;;;;5055440;28;20219;-47
2023/10/22 14:07:00;;;;;;;1.03;0.60;;;15.70;99.90;;;;;;5073499;28;20605;-46
2023/10/22 14:09:26;;;;;;;2.17;1.10;;;15.70;99.90;;;;;;5073475;28;20214;-47
2023/10/22 14:11:52;;;;;;;1.47;1.20;;;15.70;99.90;;;;;;5073386;28;20195;-46
2023/10/22 14:14:18;;;;;;;1.53;0.93;;;15.70;99.90;;;;;;5073237;28;20203;-46
2023/10/22 14:16:45;;;;;;;1.30;0.80;;;15.70;99.90;;;;;;5073149;28;20582;-41
2023/10/22 14:20:04;;;;;;;2.83;0.80;;;15.70;99.90;;;;;;5073336;28;20180;-45
2023/10/22 14:22:32;;;;;;;1.40;0.80;;;15.70;99.90;;;;;;5073030;28;20211;-44
2023/10/22 14:24:59;;;;;;;0.60;0.60;;;15.60;99.90;;;;;;5073248;28;20545;-44
2023/10/22 14:27:25;;;;;;;2.60;0.70;;;15.60;99.90;;;;;;5055108;28;20218;-42
2023/10/22 14:29:51;;;;;;;0.60;0.60;;;15.50;99.90;;;;;;5073252;28;20183;-39
2023/10/22 14:32:18;;;;;;;0.73;0.57;;;15.50;99.90;;;;;;5073011;28;20176;-41
2023/10/22 14:34:45;;;;;;;1.10;0.60;;;15.50;99.90;;;;;;5055666;28;20232;-40
2023/10/22 14:37:11;;;;;;;3.80;0.70;;;15.50;99.90;;;;;;5055063;28;20551;-45
2023/10/22 14:39:37;;;;;;;3.27;0.87;;;15.60;99.90;;;;;;5055311;28;20192;-41
2023/10/22 14:42:04;;;;;;;1.40;0.50;;;15.60;99.90;;;;;;5073143;28;20738;-41
2023/10/22 14:44:29;;;;;;;0.57;0.50;;;15.70;99.90;;;;;;5054994;28;20211;-40
2023/10/22 14:46:59;;;;;;;4.30;0.70;;;15.70;99.90;;;;;;5073205;28;20201;-39
2023/10/22 14:49:27;;;;;;;2.07;1.10;;;15.60;99.90;;;;;;5056078;28;20628;-43
2023/10/22 14:51:52;;;;;;;3.13;0.90;;;15.60;99.90;;;;;;5054825;28;20207;-43
2023/10/22 14:54:18;;;;;;;1.70;0.70;;;15.50;99.90;;;;;;5072893;28;20212;-41
2023/10/22 14:56:46;;;;;;;5.27;0.80;;;15.60;99.90;;;;;;5072656;28;20183;-44
2023/10/22 14:59:12;;;;;;;1.90;0.60;;;15.50;99.90;;;;;;5054933;28;20215;-41
2023/10/22 15:01:38;;;;;;;4.47;1.00;;;15.50;99.90;;;;;;5072038;28;20273;-43
2023/10/22 15:04:05;;;;;;;1.67;0.60;;;15.50;99.90;;;;;;5057064;28;20184;-43
2023/10/22 15:06:31;;;;;;;2.00;0.80;;;15.50;99.90;;;;;;5058559;28;20199;-42
2023/10/22 15:08:58;;;;;;;1.97;0.80;;;15.50;99.90;;;;;;5041813;28;20187;-43
2023/10/22 15:11:26;;;;;;;2.70;1.00;;;15.50;99.90;;;;;;5076270;28;20211;-44
2023/10/22 15:13:53;;;;;;;3.80;1.50;;;15.40;99.90;;;;;;5076770;28;20187;-43
2023/10/22 15:16:45;;;;;;;5.87;1.27;;;15.30;99.90;;;;;;5058860;28;20322;-42
2023/10/22 15:19:11;;;;;;;5.83;1.80;;;15.30;99.90;;;;;;5058374;28;20293;-43
2023/10/22 15:21:37;;;;;;;4.73;1.50;;;15.10;99.90;;;;;;5058702;28;20603;-40
2023/10/22 15:24:03;;;;;;;3.73;1.53;;;15.20;99.90;;;;;;5076158;28;20202;-42
2023/10/22 15:26:28;;;;;;;6.77;1.73;;;15.10;99.90;;;;;;5058550;28;20203;-44
2023/10/22 15:28:54;;;;;;;3.83;1.33;;;15.10;99.90;;;;;;5076276;28;20172;-44
2023/10/22 15:31:21;;;;;;;2.63;1.10;;;15.10;99.90;;;;;;5076438;28;20241;-46
2023/10/22 15:33:47;;;;;;;2.57;1.03;;;15.10;99.90;;;;;;5076210;28;20194;-40
2023/10/22 15:36:12;;;;;;;1.53;0.90;;;15.10;99.90;;;;;;5058627;28;20262;-43
2023/10/22 15:38:39;;;;;;;2.67;1.00;;;15.10;99.90;;;;;;5041272;28;20183;-43
2023/10/22 15:41:06;;;;;;;1.83;0.90;;;15.10;99.90;;;;;;5075829;28;20192;-44
2023/10/22 15:43:33;;;;;;;1.80;0.90;;;15.10;99.90;;;;;;5076336;28;20168;-42
2023/10/22 15:45:58;;;;;;;2.23;0.90;;;15.00;99.90;;;;;;5076305;28;20302;-42
2023/10/22 15:48:30;;;;;;;1.10;0.80;;;15.00;99.90;;;;;;5076028;28;20203;-43
2023/10/22 15:50:59;;;;;;;3.97;1.00;;;15.00;99.90;;;;;;5075315;28;20208;-45
2023/10/22 15:53:24;;;;;;;1.57;0.93;;;15.00;99.90;;;;;;5075858;28;20597;-44
2023/10/22 15:55:51;;;;;;;5.23;0.90;;;15.00;99.90;;;;;;5058252;28;20211;-43
2023/10/22 15:58:17;;;;;;;3.57;1.20;;;14.90;99.90;;;;;;5057863;28;20579;-42
2023/10/22 16:00:43;;;;;;;2.57;0.90;;;14.90;99.90;;;;;;5075662;28;20255;-42
2023/10/22 16:03:09;;;;;;;1.83;0.80;;;14.90;99.90;;;;;;5058527;28;20176;-44
2023/10/22 16:05:42;;;;;;;3.67;0.80;;;14.80;99.90;;;;;;5076083;28;20221;-44
2023/10/22 16:08:08;;;;;;;2.80;0.97;;;14.80;99.90;;;;;;5059160;28;20301;-43
2023/10/22 16:10:34;;;;;;;5.57;1.43;;;14.80;99.90;;;;;;5078695;28;20239;-42
2023/10/22 16:13:03;;;;;;;1.43;0.83;;;14.80;99.90;;;;;;5061203;28;20721;-42
2023/10/22 16:15:30;;;;;;;3.13;1.17;;;14.70;99.90;;;;;;5063238;28;20171;-45
2023/10/22 16:17:56;;;;;;;3.47;1.10;;;14.70;99.90;;;;;;5084174;28;20638;-43
2023/10/22 16:20:22;;;;;;;2.37;0.90;;;14.60;99.90;;;;;;5082001;28;20221;-45
2023/10/22 16:26:10;;;;;;;4.53;1.00;;;14.30;99.90;;;;;;5075152;28;20686;-45
2023/10/22 16:29:20;;;;;;;2.43;0.93;;;14.20;99.90;;;;;;5075158;28;20329;-44
2023/10/22 16:31:46;;;;;;;2.30;0.90;;;14.10;99.90;;;;;;5074682;28;20734;-44
2023/10/22 16:34:17;;;;;;;0.60;0.60;;;14.00;99.90;;;;;;5075066;28;20244;-44
2023/10/22 16:36:43;;;;;;;4.57;0.80;;;14.00;99.90;;;;;;5075144;28;20180;-45
2023/10/22 16:39:09;;;;;;;1.63;0.67;;;13.90;99.90;;;;;;5056676;28;20176;-44
2023/10/22 16:41:37;;;;;;;1.37;0.70;;;13.90;99.90;;;;;;5074690;28;20206;-45
2023/10/22 16:44:06;;;;;;;1.63;0.77;;;13.80;99.90;;;;;;5075000;28;20207;-44
2023/10/22 16:46:33;;;;;;;3.87;0.83;;;13.80;99.90;;;;;;5080176;28;20172;-42
2023/10/22 16:48:59;;;;;;;2.23;0.90;;;13.80;99.90;;;;;;5080044;28;20203;-44
2023/10/22 16:54:54;;;;;;;1.63;0.63;;;13.70;99.90;;;;;;5074757;28;20643;-42
2023/10/22 16:57:21;;;;;;;0.83;0.60;;;13.60;99.90;;;;;;5056510;28;20197;-46
2023/10/22 16:59:48;;;;;;;0.87;0.80;;;13.60;99.90;;;;;;5074161;28;20178;-46
2023/10/22 17:02:17;;;;;;;0.83;0.60;;;13.50;99.90;;;;;;5074216;28;20311;-45
2023/10/22 17:04:44;;;;;;;0.80;0.60;;;13.50;99.90;;;;;;5074406;28;20208;-44
2023/10/22 17:07:09;;;;;;;0.77;0.60;;;13.40;99.90;;;;;;5074735;28;20508;-44
2023/10/22 17:09:37;;;;;;;1.17;0.80;;;13.40;99.90;;;;;;5056183;28;20183;-43
2023/10/22 17:12:06;;;;;;;1.93;0.80;;;13.40;99.90;;;;;;5074005;28;20695;-45
2023/10/22 17:14:33;;;;;;;1.23;0.60;;;13.30;99.90;;;;;;5073904;28;20187;-43
2023/10/22 17:17:02;;;;;;;0.80;0.70;;;13.30;99.90;;;;;;5039265;28;20192;-44
2023/10/22 17:23:17;;;;;;;0.60;0.60;;;13.20;99.90;;;;;;5074207;28;20565;-44
2023/10/22 17:25:48;;;;;;;1.63;0.80;;;13.20;99.90;;;;;;5073739;28;20237;-44
2023/10/22 17:28:19;;;;;;;1.13;0.83;;;13.10;99.90;;;;;;5072826;28;20202;-43
2023/10/22 17:31:24;;;;;;;1.37;0.90;;;13.10;99.90;;;;;;5073885;28;20249;-44
2023/10/22 17:33:53;;;;;;;1.60;0.90;;;13.00;99.90;;;;;;5055650;28;20200;-45
2023/10/22 17:36:21;;;;;;;1.07;0.70;;;13.00;99.90;;;;;;5074297;28;20183;-43
2023/10/22 17:38:48;;;;;;;2.13;0.80;;;12.90;99.90;;;;;;5074108;28;20242;-43
2023/10/22 17:41:13;;;;;;;1.80;0.60;;;12.90;99.90;;;;;;5073828;28;20271;-44
2023/10/22 17:43:41;;;;;;;1.00;0.90;;;12.90;99.90;;;;;;5074005;28;20651;-45
2023/10/22 17:46:15;;;;;;;1.50;1.00;;;12.90;99.90;;;;;;5073935;28;20750;-43
2023/10/22 17:48:41;;;;;;;1.33;0.80;;;12.80;99.90;;;;;;5073470;28;20191;-45
2023/10/22 17:51:09;;;;;;;1.90;1.30;;;12.80;99.90;;;;;;5073838;28;20237;-44
2023/10/22 17:53:36;;;;;;;2.30;1.33;;;12.70;99.90;;;;;;5073681;28;20534;-45
2023/10/22 17:56:03;;;;;;;1.50;1.23;;;12.70;99.90;;;;;;5055637;28;20187;-46
2023/10/22 17:58:35;;;;;;;2.87;1.33;;;12.60;99.90;;;;;;5073656;28;20195;-45
2023/10/22 18:01:01;;;;;;;1.30;1.17;;;12.60;99.90;;;;;;5055464;28;20219;-45
2023/10/22 18:03:29;;;;;;;3.10;1.30;;;12.50;99.90;;;;;;5073604;28;20639;-46
2023/10/22 18:06:03;;;;;;;2.73;1.00;;;12.50;99.90;;;;;;5038749;28;20199;-44
2023/10/22 18:08:38;;;;;;;1.13;1.03;;;12.40;99.90;;;;;;5055257;28;20658;-46
2023/10/22 18:11:05;;;;;;;2.97;1.20;;;12.40;99.90;;;;;;5055379;28;20191;-46
2023/10/22 18:13:31;;;;;;;2.30;1.20;;;12.30;99.90;;;;;;5055495;28;20270;-45
2023/10/22 18:15:57;;;;;;;3.93;1.40;;;12.30;99.90;;;;;;5055572;28;20222;-46
2023/10/22 18:18:23;;;;;;;1.40;1.10;;;12.20;99.90;;;;;;5073480;28;20213;-44
2023/10/22 18:20:52;;;;;;;1.90;1.20;;;12.20;99.90;;;;;;5072231;28;20222;-45
2023/10/22 18:23:19;;;;;;;1.60;1.10;;;12.20;99.90;;;;;;5055123;28;20655;-45